Time;durP1;ratioP1;P1;durP2;ratioP2;P2;SDS_P1;SDS_P2;PMS_P1;PMS_P2;Temp;Humidity;BMP_temperature;BMP_pressure;BME280_temperature;BME280_humidity;BME280_pressure;Samples;Min_cycle;Max_cycle;Signal;HPM_P1;HPM_P2
2021/05/21 00:01:17;;;;;;;6.97;3.43;;;;;;;;;;5006100;28;20422;-84
2021/05/21 00:03:43;;;;;;;3.50;3.20;;;;;;;;;;5004784;28;20431;-84
2021/05/21 00:06:10;;;;;;;2.67;2.47;;;;;;;;;;5002289;28;20404;-84
2021/05/21 00:08:36;;;;;;;3.80;3.50;;;;;;;;;;5003882;28;20435;-83
2021/05/21 00:11:02;;;;;;;3.47;3.27;;;;;;;;;;5004420;28;20438;-84
2021/05/21 00:13:28;;;;;;;4.07;3.77;;;;;;;;;;5003200;28;20459;-84
2021/05/21 00:15:54;;;;;;;3.23;3.03;;;;;;;;;;5005376;28;20827;-83
2021/05/21 00:18:20;;;;;;;4.27;3.87;;;;;;;;;;5015630;28;20400;-84
2021/05/21 00:20:46;;;;;;;3.20;3.00;;;;;;;;;;5019066;28;20471;-85
2021/05/21 00:23:13;;;;;;;2.97;2.77;;;;;;;;;;5020321;28;20415;-82
2021/05/21 00:25:39;;;;;;;5.23;3.97;;;;;;;;;;5013793;28;20951;-83
2021/05/21 00:28:05;;;;;;;7.40;3.23;;;;;;;;;;5003655;28;20424;-84
2021/05/21 00:30:31;;;;;;;3.80;3.33;;;;;;;;;;5002808;28;20499;-85
2021/05/21 00:32:57;;;;;;;4.27;3.97;;;;;;;;;;5002560;28;20811;-84
2021/05/21 00:35:23;;;;;;;3.60;3.27;;;;;;;;;;5003151;28;20458;-84
2021/05/21 00:37:49;;;;;;;5.73;5.20;;;;;;;;;;4985553;28;20412;-84
2021/05/21 00:40:15;;;;;;;3.43;3.13;;;;;;;;;;5006615;28;20443;-84
2021/05/21 00:42:41;;;;;;;3.47;3.27;;;;;;;;;;5016847;28;20506;-83
2021/05/21 00:45:08;;;;;;;5.50;5.00;;;;;;;;;;5017709;28;20455;-80
2021/05/21 00:47:34;;;;;;;3.97;3.67;;;;;;;;;;5017324;28;20438;-82
2021/05/21 00:50:00;;;;;;;4.73;4.33;;;;;;;;;;5018135;28;20400;-83
2021/05/21 00:52:28;;;;;;;4.30;3.90;;;;;;;;;;5012967;28;20459;-83
2021/05/21 00:54:54;;;;;;;6.30;3.90;;;;;;;;;;5009267;28;20447;-83
2021/05/21 00:57:20;;;;;;;4.33;4.03;;;;;;;;;;5004440;28;20975;-81
2021/05/21 00:59:46;;;;;;;5.13;4.20;;;;;;;;;;5002911;28;20435;-84
2021/05/21 01:02:12;;;;;;;5.10;4.60;;;;;;;;;;4984631;28;20423;-84
2021/05/21 01:04:39;;;;;;;5.30;4.90;;;;;;;;;;4983932;28;20444;-83
2021/05/21 01:07:05;;;;;;;6.80;3.93;;;;;;;;;;4983397;28;20971;-84
2021/05/21 01:09:31;;;;;;;3.50;3.20;;;;;;;;;;5000496;28;20426;-84
2021/05/21 01:11:57;;;;;;;3.80;3.60;;;;;;;;;;5000953;28;20451;-84
2021/05/21 01:14:23;;;;;;;7.37;6.67;;;;;;;;;;4999757;28;20502;-84
2021/05/21 01:16:49;;;;;;;6.40;5.87;;;;;;;;;;4999613;28;20423;-84
2021/05/21 01:19:15;;;;;;;4.10;3.70;;;;;;;;;;5002598;28;20439;-84
2021/05/21 01:21:41;;;;;;;4.60;4.30;;;;;;;;;;5002138;28;20434;-82
2021/05/21 01:24:08;;;;;;;6.23;5.80;;;;;;;;;;5009710;28;20431;-82
2021/05/21 01:26:34;;;;;;;4.13;3.83;;;;;;;;;;5010436;28;20419;-82
2021/05/21 01:29:01;;;;;;;4.47;4.07;;;;;;;;;;5006827;28;20424;-82
2021/05/21 01:31:28;;;;;;;7.20;4.37;;;;;;;;;;5009472;28;20431;-83
2021/05/21 01:33:54;;;;;;;3.67;3.37;;;;;;;;;;5010118;28;20470;-85
2021/05/21 01:36:20;;;;;;;5.23;4.73;;;;;;;;;;5006456;28;20411;-85
2021/05/21 01:38:59;;;;;;;4.93;4.00;;;;;;;;;;5008367;28;20423;-85
2021/05/21 01:41:25;;;;;;;4.27;3.97;;;;;;;;;;5005391;28;20836;-85
2021/05/21 01:43:52;;;;;;;5.30;4.90;;;;;;;;;;5002242;28;20475;-84
2021/05/21 01:46:19;;;;;;;4.87;4.30;;;;;;;;;;5002479;28;20404;-83
2021/05/21 01:48:46;;;;;;;4.63;4.23;;;;;;;;;;5001373;28;20430;-83
2021/05/21 01:51:12;;;;;;;4.50;4.10;;;;;;;;;;5001335;28;20419;-84
2021/05/21 01:53:38;;;;;;;4.00;3.70;;;;;;;;;;4983055;28;20444;-83
2021/05/21 01:56:04;;;;;;;7.33;3.70;;;;;;;;;;5000236;28;20494;-84
2021/05/21 01:58:31;;;;;;;4.40;4.00;;;;;;;;;;5000382;28;20411;-84
2021/05/21 02:00:57;;;;;;;4.80;4.40;;;;;;;;;;4984719;28;20420;-84
2021/05/21 02:03:23;;;;;;;4.87;4.47;;;;;;;;;;5005201;28;20438;-83
2021/05/21 02:05:52;;;;;;;3.90;3.60;;;;;;;;;;5000942;28;20422;-83
2021/05/21 02:08:18;;;;;;;4.10;3.70;;;;;;;;;;4982677;28;20430;-84
2021/05/21 02:10:45;;;;;;;4.37;3.97;;;;;;;;;;4999431;28;20480;-83
2021/05/21 02:13:11;;;;;;;3.43;3.23;;;;;;;;;;4998589;28;20543;-83
2021/05/21 02:15:37;;;;;;;4.30;4.00;;;;;;;;;;4999387;28;20407;-83
2021/05/21 02:18:03;;;;;;;4.37;4.03;;;;;;;;;;4982785;28;20415;-84
2021/05/21 02:20:29;;;;;;;4.07;3.80;;;;;;;;;;5002642;28;20450;-84
2021/05/21 02:22:55;;;;;;;4.70;4.20;;;;;;;;;;5004808;28;20427;-84
2021/05/21 02:25:22;;;;;;;4.00;3.70;;;;;;;;;;5003868;28;20427;-83
2021/05/21 02:27:48;;;;;;;2.90;2.70;;;;;;;;;;4986639;28;20420;-84
2021/05/21 02:30:14;;;;;;;3.97;3.60;;;;;;;;;;5003866;28;20427;-84
2021/05/21 02:32:40;;;;;;;4.23;3.67;;;;;;;;;;5008110;28;20459;-84
2021/05/21 02:35:07;;;;;;;3.40;3.20;;;;;;;;;;5004665;28;20424;-84
2021/05/21 02:37:33;;;;;;;4.07;3.67;;;;;;;;;;5003576;28;20446;-84
2021/05/21 02:39:59;;;;;;;4.93;4.43;;;;;;;;;;5004762;28;20446;-83
2021/05/21 02:42:25;;;;;;;3.80;3.50;;;;;;;;;;5004454;28;20415;-84
2021/05/21 02:49:00;;;;;;;4.10;3.80;;;;;;;;;;4935487;29;20457;-83
2021/05/21 02:55:02;;;;;;;3.53;3.23;;;;;;;;;;5122050;23;20533;-85
2021/05/21 03:02:05;;;;;;;3.50;3.23;;;;;;;;;;4925369;29;20421;-85
2021/05/21 03:08:12;;;;;;;4.10;3.80;;;;;;;;;;4943044;29;20442;-85
2021/05/21 03:20:17;;;;;;;7.10;3.67;;;;;;;;;;4943182;29;20470;-84
2021/05/21 03:29:55;;;;;;;3.70;3.40;;;;;;;;;;5031374;23;20482;-84
2021/05/21 03:32:21;;;;;;;4.83;4.43;;;;;;;;;;5023651;28;20833;-84
2021/05/21 03:34:47;;;;;;;4.30;3.13;;;;;;;;;;5022472;28;20425;-83
2021/05/21 03:37:14;;;;;;;4.43;4.03;;;;;;;;;;5027350;28;20429;-84
2021/05/21 03:39:40;;;;;;;4.87;3.93;;;;;;;;;;5021668;28;20451;-84
2021/05/21 03:42:07;;;;;;;5.00;4.40;;;;;;;;;;5021436;28;20426;-84
2021/05/21 03:44:33;;;;;;;7.50;3.77;;;;;;;;;;5022780;28;20930;-83
2021/05/21 03:47:01;;;;;;;3.80;3.50;;;;;;;;;;5021982;28;20425;-83
2021/05/21 03:49:28;;;;;;;3.47;3.17;;;;;;;;;;5021001;28;20496;-85
2021/05/21 03:51:57;;;;;;;3.97;3.70;;;;;;;;;;5020827;28;20459;-84
2021/05/21 03:54:23;;;;;;;4.60;4.20;;;;;;;;;;5020022;28;20426;-84
2021/05/21 03:56:50;;;;;;;5.93;4.60;;;;;;;;;;5004524;28;20421;-83
2021/05/21 03:59:16;;;;;;;4.67;4.27;;;;;;;;;;5020746;28;20525;-84
2021/05/21 04:01:43;;;;;;;4.40;3.80;;;;;;;;;;5021191;28;20843;-84
2021/05/21 04:04:09;;;;;;;5.30;4.80;;;;;;;;;;5020527;28;20458;-83
2021/05/21 04:06:35;;;;;;;4.33;3.47;;;;;;;;;;5022419;28;20426;-83
2021/05/21 04:09:06;;;;;;;3.40;3.20;;;;;;;;;;5021490;28;20431;-83
2021/05/21 04:11:32;;;;;;;3.70;3.50;;;;;;;;;;5022724;28;20423;-84
2021/05/21 04:13:58;;;;;;;4.23;3.83;;;;;;;;;;5022228;28;20399;-84
2021/05/21 04:16:24;;;;;;;7.03;4.20;;;;;;;;;;5025474;28;20411;-83
2021/05/21 04:18:53;;;;;;;4.10;3.80;;;;;;;;;;5026522;28;20445;-85
2021/05/21 04:21:19;;;;;;;4.20;3.57;;;;;;;;;;5025341;28;20519;-84
2021/05/21 04:23:45;;;;;;;6.43;3.77;;;;;;;;;;5028942;28;20488;-83
2021/05/21 04:26:13;;;;;;;4.10;3.80;;;;;;;;;;5036970;28;20414;-81
2021/05/21 04:28:40;;;;;;;6.20;5.60;;;;;;;;;;5032304;28;20477;-83
2021/05/21 04:31:06;;;;;;;3.87;3.57;;;;;;;;;;5010266;28;20429;-83
2021/05/21 04:33:32;;;;;;;5.00;3.60;;;;;;;;;;5021649;28;20450;-84
2021/05/21 04:35:59;;;;;;;4.03;3.33;;;;;;;;;;5023087;28;20895;-84
2021/05/21 04:38:25;;;;;;;3.07;2.87;;;;;;;;;;5022013;28;20802;-84
2021/05/21 04:40:58;;;;;;;3.20;2.90;;;;;;;;;;5005667;28;20485;-84
2021/05/21 04:43:25;;;;;;;3.00;2.80;;;;;;;;;;5021747;28;20423;-84
2021/05/21 04:45:51;;;;;;;6.73;4.30;;;;;;;;;;5004337;28;20430;-84
2021/05/21 04:48:18;;;;;;;4.77;2.93;;;;;;;;;;5022463;28;20445;-84
2021/05/21 04:50:48;;;;;;;4.30;3.37;;;;;;;;;;5025009;28;20430;-84
2021/05/21 04:53:14;;;;;;;3.37;3.13;;;;;;;;;;5022812;28;20457;-84
2021/05/21 04:55:41;;;;;;;4.10;2.53;;;;;;;;;;5023913;28;20399;-85
2021/05/21 04:58:07;;;;;;;4.03;3.63;;;;;;;;;;5022660;28;20418;-81
2021/05/21 05:00:34;;;;;;;3.60;3.30;;;;;;;;;;5022064;28;20449;-84
2021/05/21 05:03:04;;;;;;;4.80;3.73;;;;;;;;;;5005415;28;20555;-83
2021/05/21 05:05:30;;;;;;;4.47;4.07;;;;;;;;;;5023277;28;20486;-85
2021/05/21 05:07:56;;;;;;;3.10;2.90;;;;;;;;;;5026894;28;20582;-84
2021/05/21 05:10:43;;;;;;;2.93;2.73;;;;;;;;;;5022645;28;20426;-84
2021/05/21 05:13:11;;;;;;;2.90;2.47;;;;;;;;;;5021714;28;20881;-85
2021/05/21 05:15:47;;;;;;;3.00;2.80;;;;;;;;;;5023171;28;20407;-84
2021/05/21 05:18:14;;;;;;;2.57;2.33;;;;;;;;;;5006502;28;20430;-85
2021/05/21 05:20:43;;;;;;;2.70;2.50;;;;;;;;;;5009635;28;20435;-85
2021/05/21 05:23:13;;;;;;;3.40;3.10;;;;;;;;;;5024696;28;20430;-83
2021/05/21 05:25:43;;;;;;;3.30;3.00;;;;;;;;;;5009806;28;20478;-84
2021/05/21 05:28:09;;;;;;;3.73;3.43;;;;;;;;;;5029841;28;20419;-85
2021/05/21 05:31:21;;;;;;;2.90;2.70;;;;;;;;;;5018279;28;20438;-84
2021/05/21 05:33:40;;;;;;;3.67;3.27;;;;;;;;;;5031297;28;20534;-84
2021/05/21 05:36:16;;;;;;;4.57;2.57;;;;;;;;;;5029341;28;20414;-84
2021/05/21 05:38:55;;;;;;;;;;;;;;;;;;;;;
2021/05/21 05:41:33;;;;;;;4.67;3.23;;;;;;;;;;5025536;28;20426;-87
2021/05/21 05:44:02;;;;;;;3.27;2.80;;;;;;;;;;5022922;28;20995;-86
2021/05/21 05:46:33;;;;;;;2.87;2.67;;;;;;;;;;5022236;28;20402;-85
2021/05/21 05:49:02;;;;;;;3.43;2.30;;;;;;;;;;5001297;28;20490;-85
2021/05/21 05:51:41;;;;;;;3.93;2.63;;;;;;;;;;5000463;28;20479;-85
2021/05/21 05:57:33;;;;;;;3.73;2.57;;;;;;;;;;5006638;28;20442;-84
2021/05/21 05:59:59;;;;;;;2.83;2.50;;;;;;;;;;5003362;28;20455;-86
2021/05/21 06:02:29;;;;;;;3.73;2.37;;;;;;;;;;5000435;28;20448;-86
2021/05/21 06:05:02;;;;;;;2.43;2.23;;;;;;;;;;5017406;28;20384;-86
2021/05/21 06:07:29;;;;;;;4.10;3.00;;;;;;;;;;5016269;28;20459;-85
2021/05/21 06:09:55;;;;;;;3.00;2.70;;;;;;;;;;5016708;28;20434;-86
2021/05/21 06:12:21;;;;;;;4.43;2.40;;;;;;;;;;5000140;28;20460;-86
2021/05/21 06:14:53;;;;;;;2.63;2.43;;;;;;;;;;5016394;28;20916;-85
2021/05/21 06:17:21;;;;;;;6.30;4.70;;;;;;;;;;5004809;28;20743;-85
2021/05/21 06:19:50;;;;;;;6.57;5.93;;;;;;;;;;5016332;28;20427;-85
2021/05/21 06:22:19;;;;;;;4.70;3.27;;;;;;;;;;5015444;28;20404;-85
2021/05/21 06:24:51;;;;;;;3.20;2.90;;;;;;;;;;5016808;28;20404;-85
2021/05/21 06:27:29;;;;;;;9.47;2.37;;;;;;;;;;5002090;28;20479;-83
2021/05/21 06:29:55;;;;;;;7.50;4.87;;;;;;;;;;5003400;28;20450;-85
2021/05/21 06:32:27;;;;;;;5.33;2.53;;;;;;;;;;5003676;28;20459;-83
2021/05/21 06:34:58;;;;;;;10.40;2.90;;;;;;;;;;5002608;28;20502;-85
2021/05/21 06:37:27;;;;;;;2.40;2.20;;;;;;;;;;5016797;28;20423;-85
2021/05/21 06:39:59;;;;;;;7.27;2.93;;;;;;;;;;5016464;28;20439;-85
2021/05/21 06:42:33;;;;;;;6.40;2.97;;;;;;;;;;5017709;28;20494;-84
2021/05/21 06:45:05;;;;;;;4.00;3.00;;;;;;;;;;5018552;28;20422;-84
2021/05/21 06:47:31;;;;;;;3.10;1.60;;;;;;;;;;5001660;28;20475;-84
2021/05/21 06:49:58;;;;;;;2.43;2.23;;;;;;;;;;5000617;28;20955;-84
2021/05/21 06:52:24;;;;;;;3.20;2.37;;;;;;;;;;5016433;28;20459;-84
2021/05/21 06:54:50;;;;;;;6.60;3.40;;;;;;;;;;5000085;28;20439;-84
2021/05/21 06:57:16;;;;;;;3.97;2.23;;;;;;;;;;5016180;28;20473;-82
2021/05/21 06:59:45;;;;;;;3.30;2.90;;;;;;;;;;5003008;28;20898;-85
2021/05/21 07:02:11;;;;;;;5.05;3.20;;;;;;;;;;5002483;28;20424;-83
2021/05/21 07:05:00;;;;;;;;;;;;;;;;;;;;;
2021/05/21 07:07:51;;;;;;;4.50;2.07;;;;;;;;;;5015066;28;20392;-84
2021/05/21 07:10:46;;;;;;;1.47;1.30;;;;;;;;;;5017626;28;20419;-84
2021/05/21 07:13:14;;;;;;;4.30;2.30;;;;;;;;;;5007338;28;20543;-85
2021/05/21 07:16:07;;;;;;;4.00;2.33;;;;;;;;;;5006428;28;20411;-84
2021/05/21 07:18:32;;;;;;;1.67;1.53;;;;;;;;;;5005921;28;20439;-84
2021/05/21 07:21:04;;;;;;;4.03;2.33;;;;;;;;;;5019574;28;20399;-84
2021/05/21 07:23:34;;;;;;;1.97;1.77;;;;;;;;;;5005723;28;20384;-85
2021/05/21 07:26:01;;;;;;;1.83;1.73;;;;;;;;;;5006149;28;20451;-84
2021/05/21 07:28:30;;;;;;;1.50;1.40;;;;;;;;;;5009638;28;20474;-84
2021/05/21 07:30:57;;;;;;;2.73;1.73;;;;;;;;;;5024113;28;20416;-84
2021/05/21 07:33:26;;;;;;;1.77;1.30;;;;;;;;;;5020477;28;20455;-84
2021/05/21 07:36:19;;;;;;;4.50;2.07;;;;;;;;;;5003641;28;20419;-84
2021/05/21 07:38:46;;;;;;;3.17;2.30;;;;;;;;;;5003963;28;20490;-83
2021/05/21 07:41:38;;;;;;;3.70;3.20;;;;;;;;;;5004681;28;20471;-85
2021/05/21 07:44:16;;;;;;;1.97;1.70;;;;;;;;;;5018930;28;20456;-84
2021/05/21 07:46:48;;;;;;;3.53;2.60;;;;;;;;;;5004829;28;20483;-86
2021/05/21 07:49:49;;;;;;;3.30;2.13;;;;;;;;;;5003359;28;20475;-83
2021/05/21 07:52:26;;;;;;;2.50;2.23;;;;;;;;;;5000396;28;20467;-83
2021/05/21 07:55:16;;;;;;;3.30;2.03;;;;;;;;;;5003311;28;20407;-83
2021/05/21 07:58:06;;;;;;;2.63;2.23;;;;;;;;;;5019747;28;20910;-82
2021/05/21 08:00:42;;;;;;;2.03;1.57;;;;;;;;;;5003716;28;20418;-83
2021/05/21 08:03:48;;;;;;;2.17;1.97;;;;;;;;;;5017189;28;20460;-83
2021/05/21 08:06:30;;;;;;;2.93;2.27;;;;;;;;;;5002067;28;20925;-83
2021/05/21 08:09:03;;;;;;;5.43;1.77;;;;;;;;;;5020375;28;20516;-84
2021/05/21 08:12:10;;;;;;;6.33;2.57;;;;;;;;;;5003106;28;20950;-83
2021/05/21 08:14:36;;;;;;;2.37;1.50;;;;;;;;;;5003016;28;20411;-84
2021/05/21 08:17:09;;;;;;;2.60;2.20;;;;;;;;;;5019867;28;20419;-83
2021/05/21 08:19:55;;;;;;;2.17;1.97;;;;;;;;;;5003365;28;20998;-84
2021/05/21 08:22:47;;;;;;;3.37;1.97;;;;;;;;;;5005036;28;20447;-84
2021/05/21 08:25:26;;;;;;;2.10;2.00;;;;;;;;;;5002327;28;20415;-84
2021/05/21 08:28:15;;;;;;;2.23;2.03;;;;;;;;;;5002792;28;20943;-83
2021/05/21 08:37:33;;;;;;;1.40;1.30;;;;;;;;;;4997609;28;20476;-84
2021/05/21 08:40:03;;;;;;;1.80;1.50;;;;;;;;;;5000718;28;20431;-84
2021/05/21 08:42:58;;;;;;;;;;;;;;;;;;;;;
2021/05/21 08:45:57;;;;;;;2.10;1.90;;;;;;;;;;5004805;28;20916;-84
2021/05/21 08:48:36;;;;;;;1.77;1.30;;;;;;;;;;5004768;28;20868;-83
2021/05/21 08:51:30;;;;;;;;;;;;;;;;;;;;;
2021/05/21 08:54:43;;;;;;;1.83;1.60;;;;;;;;;;5026765;28;20419;-84
2021/05/21 08:57:16;;;;;;;4.47;1.90;;;;;;;;;;5005591;28;20482;-84
2021/05/21 08:59:50;;;;;;;1.93;1.50;;;;;;;;;;5022554;28;20497;-84
2021/05/21 09:02:26;;;;;;;5.40;1.63;;;;;;;;;;5010860;28;20406;-83
2021/05/21 09:05:00;;;;;;;1.40;1.30;;;;;;;;;;5004301;28;20424;-85
2021/05/21 09:07:40;;;;;;;1.90;1.60;;;;;;;;;;5018501;28;20448;-82
2021/05/21 09:10:23;;;;;;;;;;;;;;;;;;;;;
2021/05/21 09:13:19;;;;;;;2.60;2.03;;;;;;;;;;5002147;28;20926;-83
2021/05/21 09:16:24;;;;;;;2.00;1.57;;;;;;;;;;5118062;27;1299501;-85
2021/05/21 09:19:31;;;;;;;2.43;1.40;;;;;;;;;;5105395;28;20430;-84
2021/05/21 09:22:15;;;;;;;1.87;1.50;;;;;;;;;;5004930;28;20428;-84
2021/05/21 09:31:44;;;;;;;2.13;1.40;;;;;;;;;;4214812;26;20458;-85
2021/05/21 09:34:13;;;;;;;1.60;1.37;;;;;;;;;;4986232;28;20462;-87
2021/05/21 09:36:41;;;;;;;3.80;1.80;;;;;;;;;;4986144;28;20961;-84
2021/05/21 09:39:09;;;;;;;6.10;5.10;;;;;;;;;;5018584;28;20439;-86
2021/05/21 09:41:47;;;;;;;4.53;1.40;;;;;;;;;;5058994;28;20407;-85
2021/05/21 09:44:16;;;;;;;2.27;1.80;;;;;;;;;;5061053;28;20445;-85
2021/05/21 09:46:49;;;;;;;3.70;1.43;;;;;;;;;;5039163;28;20419;-84
2021/05/21 09:49:35;;;;;;;5.97;1.67;;;;;;;;;;5037355;28;20528;-85
2021/05/21 09:52:17;;;;;;;3.80;2.33;;;;;;;;;;5037883;28;20815;-86
2021/05/21 09:54:52;;;;;;;2.30;1.53;;;;;;;;;;5051204;28;20449;-86
2021/05/21 09:57:35;;;;;;;4.20;2.00;;;;;;;;;;5035464;28;20414;-84
2021/05/21 10:00:05;;;;;;;2.93;1.70;;;;;;;;;;5053871;28;20437;-84
2021/05/21 10:02:43;;;;;;;2.90;2.10;;;;;;;;;;5054477;28;20744;-85
2021/05/21 10:05:10;;;;;;;4.23;1.80;;;;;;;;;;5023708;28;20398;-84
2021/05/21 10:07:36;;;;;;;3.40;2.13;;;;;;;;;;5054339;28;20421;-85
2021/05/21 10:10:14;;;;;;;2.70;1.13;;;;;;;;;;5020035;28;20443;-86
2021/05/21 10:12:46;;;;;;;4.20;2.00;;;;;;;;;;5051092;28;20430;-85
2021/05/21 10:15:12;;;;;;;5.93;1.40;;;;;;;;;;5019688;28;20461;-88
2021/05/21 10:17:43;;;;;;;1.43;1.00;;;;;;;;;;5019718;28;20490;-85
2021/05/21 10:20:11;;;;;;;3.50;1.13;;;;;;;;;;5018995;28;20772;-86
2021/05/21 10:22:39;;;;;;;1.33;1.23;;;;;;;;;;5019374;28;20426;-86
2021/05/21 10:25:24;;;;;;;5.00;1.97;;;;;;;;;;5020381;28;20396;-86
2021/05/21 10:27:55;;;;;;;8.23;3.03;;;;;;;;;;5007697;28;20419;-87
2021/05/21 10:30:23;;;;;;;6.20;1.90;;;;;;;;;;5004981;28;20455;-85
2021/05/21 10:32:51;;;;;;;2.20;1.37;;;;;;;;;;5004004;28;20479;-85
2021/05/21 10:35:19;;;;;;;1.40;1.30;;;;;;;;;;5035368;28;20848;-84
2021/05/21 10:38:36;;;;;;;2.37;1.30;;;;;;;;;;5002579;28;20429;-86
2021/05/21 10:41:21;;;;;;;1.53;1.30;;;;;;;;;;4978167;28;20425;-86
2021/05/21 10:43:58;;;;;;;5.23;1.17;;;;;;;;;;5018281;28;20419;-85
2021/05/21 10:46:42;;;;;;;2.10;1.90;;;;;;;;;;5035414;28;20411;-86
2021/05/21 10:49:30;;;;;;;2.30;1.20;;;;;;;;;;5017807;28;20499;-85
2021/05/21 10:52:05;;;;;;;2.17;1.90;;;;;;;;;;5026506;28;20465;-85
2021/05/21 10:54:36;;;;;;;2.00;1.63;;;;;;;;;;5018288;28;20462;-85
2021/05/21 10:57:10;;;;;;;2.50;1.50;;;;;;;;;;5032319;28;20439;-85
2021/05/21 10:59:43;;;;;;;2.27;1.60;;;;;;;;;;5029406;28;20435;-85
2021/05/21 11:02:12;;;;;;;4.03;1.40;;;;;;;;;;5019920;28;20419;-86
2021/05/21 11:04:41;;;;;;;1.30;1.00;;;;;;;;;;5019432;28;20475;-85
2021/05/21 11:07:07;;;;;;;3.93;1.13;;;;;;;;;;5019528;28;20434;-86
2021/05/21 11:09:47;;;;;;;5.23;1.40;;;;;;;;;;5019348;28;20808;-87
2021/05/21 11:12:15;;;;;;;3.37;2.13;;;;;;;;;;5019041;28;20437;-86
2021/05/21 11:14:46;;;;;;;6.80;2.23;;;;;;;;;;5035206;28;20473;-84
2021/05/21 11:17:23;;;;;;;3.37;2.03;;;;;;;;;;5019144;28;20426;-84
2021/05/21 11:20:01;;;;;;;1.43;1.33;;;;;;;;;;5003688;28;20497;-86
2021/05/21 11:22:32;;;;;;;2.40;1.23;;;;;;;;;;5018824;28;20407;-86
2021/05/21 11:25:05;;;;;;;4.00;1.30;;;;;;;;;;5002459;28;20809;-86
2021/05/21 11:27:34;;;;;;;2.70;1.40;;;;;;;;;;5035229;28;20384;-83
2021/05/21 11:30:05;;;;;;;2.03;1.30;;;;;;;;;;5003663;28;20448;-86
2021/05/21 11:32:37;;;;;;;1.17;1.07;;;;;;;;;;5005612;28;20403;-86
2021/05/21 11:35:05;;;;;;;3.40;2.00;;;;;;;;;;5023687;28;20882;-87
2021/05/21 11:37:37;;;;;;;1.93;1.83;;;;;;;;;;5003544;28;20920;-87
2021/05/21 11:40:05;;;;;;;2.37;2.03;;;;;;;;;;5039572;28;20506;-85
2021/05/21 11:42:42;;;;;;;1.40;1.10;;;;;;;;;;5008119;28;20392;-85
2021/05/21 11:45:32;;;;;;;3.37;2.00;;;;;;;;;;5021858;28;20430;-86
2021/05/21 11:48:20;;;;;;;;;;;;;;;;;;;;;
2021/05/21 11:50:49;;;;;;;5.70;1.50;;;;;;;;;;5004526;28;20423;-84
2021/05/21 11:53:19;;;;;;;1.93;1.77;;;;;;;;;;5019047;28;20537;-86
2021/05/21 11:55:48;;;;;;;3.17;1.93;;;;;;;;;;5019801;28;20459;-86
2021/05/21 11:58:24;;;;;;;2.57;1.60;;;;;;;;;;5037257;28;20430;-84
2021/05/21 12:01:00;;;;;;;3.50;1.40;;;;;;;;;;5019178;28;20496;-86
2021/05/21 12:04:04;;;;;;;1.57;1.10;;;;;;;;;;5020455;28;20418;-85
2021/05/21 12:07:05;;;;;;;4.70;1.30;;;;;;;;;;4945108;29;20422;-87
2021/05/21 12:10:04;;;;;;;2.03;1.23;;;;;;;;;;4995292;28;20435;-86
2021/05/21 12:12:33;;;;;;;2.30;1.20;;;;;;;;;;5046302;28;20455;-85
2021/05/21 12:15:07;;;;;;;1.87;1.47;;;;;;;;;;5036497;28;20460;-86
2021/05/21 12:17:43;;;;;;;4.30;1.63;;;;;;;;;;5020739;28;20411;-85
2021/05/21 12:20:20;;;;;;;;;;;;;;;;;;;;;
2021/05/21 12:27:39;;;;;;;;;;;;;;;;;;;;;
2021/05/21 12:30:27;;;;;;;2.50;1.37;;;21.20;98.50;;;;;;4961356;28;21003;-84
2021/05/21 12:33:31;;;;;;;;;;;;;;;;;;;;;
2021/05/21 12:36:19;;;;;;;3.23;1.13;;;21.10;98.70;;;;;;4998991;28;20439;-86
2021/05/21 12:39:19;;;;;;;17.13;1.60;;;21.20;99.10;;;;;;5012486;28;20432;-85
2021/05/21 12:46:30;;;;;;;4.73;3.00;;;20.80;99.90;;;;;;4947939;29;20501;-85
2021/05/21 12:49:30;;;;;;;2.00;1.40;;;20.80;99.90;;;;;;4907497;28;20444;-85
2021/05/21 12:52:08;;;;;;;2.73;1.70;;;20.70;99.90;;;;;;5000113;28;20611;-87
2021/05/21 12:55:42;;;;;;;;;;;;;;;;;;;;;
2021/05/21 13:02:32;;;;;;;2.40;1.30;;;20.80;99.90;;;;;;4944643;28;20472;-86
2021/05/21 13:05:51;;;;;;;3.17;1.63;;;21.00;99.90;;;;;;5001976;28;20411;-86
2021/05/21 13:08:31;;;;;;;6.63;1.80;;;21.40;99.90;;;;;;5039413;22;20411;-84
2021/05/21 13:12:01;;;;;;;3.27;1.40;;;21.50;99.90;;;;;;4970600;28;20435;-87
2021/05/21 13:15:06;;;;;;;4.10;1.33;;;21.60;99.90;;;;;;4971703;28;20456;-84
2021/05/21 13:17:36;;;;;;;6.03;2.03;;;22.10;99.80;;;;;;4972245;28;20488;-83
2021/05/21 13:20:22;;;;;;;2.20;1.47;;;22.20;99.40;;;;;;4953257;29;20469;-86
2021/05/21 13:22:54;;;;;;;3.97;2.80;;;21.90;99.20;;;;;;4969124;29;20487;-85
2021/05/21 13:25:50;;;;;;;2.60;1.53;;;21.80;99.50;;;;;;4967727;29;20432;-87
2021/05/21 13:28:51;;;;;;;1.70;1.27;;;22.00;99.50;;;;;;4947982;28;20426;-85
2021/05/21 13:31:53;;;;;;;3.40;1.83;;;21.90;99.10;;;;;;4866133;29;20801;-86
2021/05/21 13:34:29;;;;;;;4.77;1.80;;;22.20;98.70;;;;;;4961722;29;20523;-85
2021/05/21 13:36:54;;;;;;;2.10;1.40;;;22.30;99.00;;;;;;4962276;29;20413;-85
2021/05/21 13:39:20;;;;;;;1.90;1.37;;;22.20;98.70;;;;;;4960978;29;20464;-86
2021/05/21 13:41:52;;;;;;;3.03;1.23;;;21.90;99.20;;;;;;4945672;29;20537;-86
2021/05/21 13:44:26;;;;;;;2.47;1.53;;;21.60;99.40;;;;;;4948853;29;20425;-86
2021/05/21 13:46:59;;;;;;;3.30;1.80;;;21.60;99.00;;;;;;4965451;29;20417;-85
2021/05/21 13:55:47;;;;;;;;;;;;;;;;;;;;;
2021/05/21 13:58:33;;;;;;;4.10;1.37;;;22.00;99.30;;;;;;4949844;28;20493;-85
2021/05/21 14:02:34;;;;;;;2.87;1.40;;;21.30;99.50;;;;;;5015479;28;20399;-85
2021/05/21 14:14:41;;;;;;;2.50;1.20;;;20.00;99.90;;;;;;3349382;26;20495;-85
2021/05/21 14:17:07;;;;;;;3.53;1.10;;;19.90;99.90;;;;;;5016255;28;20419;-82
2021/05/21 14:19:36;;;;;;;2.50;1.63;;;20.30;99.90;;;;;;4975018;28;20432;-85
2021/05/21 14:22:21;;;;;;;2.10;1.30;;;20.70;99.90;;;;;;4996300;28;20537;-88
2021/05/21 14:25:22;;;;;;;2.50;2.13;;;20.90;99.90;;;;;;4987644;28;20823;-85
2021/05/21 14:28:27;;;;;;;;;;;;;;;;;;;;;
2021/05/21 14:31:44;;;;;;;1.97;1.37;;;20.60;99.90;;;;;;4944545;29;20438;-85
2021/05/21 14:35:18;;;;;;;4.10;1.47;;;20.50;99.90;;;;;;4946681;29;20469;-86
2021/05/21 14:38:34;;;;;;;6.13;5.43;;;20.50;99.90;;;;;;4943777;29;20513;-84
2021/05/21 14:41:46;;;;;;;1.83;1.70;;;20.80;99.90;;;;;;4930299;29;20509;-85
2021/05/21 14:44:45;;;;;;;1.60;1.40;;;20.80;99.90;;;;;;4944496;29;20420;-87
2021/05/21 14:47:34;;;;;;;3.17;1.73;;;20.90;99.90;;;;;;4929600;29;20427;-86
2021/05/21 14:50:41;;;;;;;9.50;2.80;;;21.00;99.90;;;;;;4945333;29;20434;-85
2021/05/21 14:54:15;;;;;;;5.97;3.17;;;20.80;99.90;;;;;;4970542;28;20420;-84
2021/05/21 14:57:53;;;;;;;;;;;;;;;;;;;;;
2021/05/21 15:04:09;;;;;;;2.67;1.80;;;19.70;99.90;;;;;;5003227;28;20421;-84
2021/05/21 15:06:52;;;;;;;3.87;1.67;;;19.50;99.90;;;;;;5032243;28;20419;-83
2021/05/21 15:09:54;;;;;;;4.90;2.13;;;19.20;99.90;;;;;;5015854;28;20431;-83
2021/05/21 15:13:26;;;;;;;;;;;;;;;;;;;;;
2021/05/21 15:33:38;;;;;;;2.20;1.43;;;20.20;99.90;;;;;;3358844;26;20467;-85
2021/05/21 15:37:03;;;;;;;;;;;;;;;;;;;;;
2021/05/21 15:40:17;;;;;;;1.87;1.67;;;20.10;99.90;;;;;;5030269;28;20422;-85
2021/05/21 15:46:35;;;;;;;4.13;2.13;;;20.30;99.90;;;;;;5079547;22;20640;-85
2021/05/21 15:54:48;;;;;;;6.33;1.73;;;20.70;99.90;;;;;;4984751;28;20524;-85
2021/05/21 15:58:05;;;;;;;2.43;1.30;;;20.50;99.90;;;;;;5004960;28;20415;-84
2021/05/21 16:00:27;;;;;;;;;;;;;;;;;;;;;
2021/05/21 16:02:55;;;;;;;4.10;1.50;;;20.80;99.90;;;;;;5002969;28;20404;-85
2021/05/21 16:05:24;;;;;;;2.10;1.57;;;20.90;99.90;;;;;;5002973;28;20445;-85
2021/05/21 16:07:58;;;;;;;5.13;2.73;;;20.80;99.90;;;;;;5002011;28;20177;-84
2021/05/21 16:10:29;;;;;;;7.40;2.80;;;20.40;99.90;;;;;;5004325;28;20518;-83
2021/05/21 16:12:58;;;;;;;2.30;1.60;;;20.30;99.90;;;;;;5005818;28;20450;-85
2021/05/21 16:15:35;;;;;;;3.50;1.77;;;20.30;99.90;;;;;;5003514;28;20474;-83
2021/05/21 16:18:02;;;;;;;4.43;1.50;;;20.50;99.90;;;;;;4987501;28;20438;-85
2021/05/21 16:20:36;;;;;;;4.33;1.67;;;20.40;99.90;;;;;;5003754;28;20462;-84
2021/05/21 16:23:05;;;;;;;1.30;1.20;;;20.40;99.90;;;;;;5002862;28;20430;-85
2021/05/21 16:25:42;;;;;;;1.23;1.10;;;20.30;99.90;;;;;;5002309;28;20499;-84
2021/05/21 16:31:41;;;;;;;4.60;1.20;;;20.00;99.90;;;;;;5005344;28;20800;-85
2021/05/21 16:34:15;;;;;;;2.80;1.83;;;19.90;99.90;;;;;;4988876;28;20415;-85
2021/05/21 16:36:47;;;;;;;2.50;1.97;;;19.80;99.90;;;;;;5004235;28;20442;-86
2021/05/21 16:39:42;;;;;;;2.50;2.30;;;19.80;99.90;;;;;;4986077;28;20420;-85
2021/05/21 16:42:24;;;;;;;7.90;2.33;;;19.70;99.90;;;;;;4987347;28;20432;-83
2021/05/21 16:44:58;;;;;;;2.30;2.00;;;19.70;99.90;;;;;;5002775;28;20459;-85
2021/05/21 16:47:27;;;;;;;3.53;2.57;;;19.70;99.90;;;;;;5007263;28;20428;-85
2021/05/21 16:53:03;;;;;;;2.80;1.63;;;19.60;99.90;;;;;;5002446;28;20396;-85
2021/05/21 16:55:33;;;;;;;2.03;1.60;;;19.50;99.90;;;;;;5001498;28;20537;-85
2021/05/21 16:58:16;;;;;;;6.87;2.83;;;19.40;99.90;;;;;;5002641;28;20471;-86
2021/05/21 17:00:58;;;;;;;3.37;1.60;;;19.50;99.90;;;;;;4986808;28;20446;-84
2021/05/21 17:04:41;;;;;;;4.43;1.70;;;19.50;99.90;;;;;;5001772;28;20415;-85
2021/05/21 17:11:58;;;;;;;2.10;1.90;;;19.40;99.90;;;;;;4958634;29;20409;-84
2021/05/21 17:15:03;;;;;;;2.13;1.93;;;19.30;99.90;;;;;;4965911;28;20550;-85
2021/05/21 17:18:27;;;;;;;6.60;1.97;;;19.10;99.90;;;;;;5006968;28;20384;-84
2021/05/21 17:42:28;;;;;;;3.87;2.40;;;;;;;;;;5009302;28;20786;-84
2021/05/21 17:45:04;;;;;;;1.97;1.40;;;;;;;;;;5010313;28;20478;-86
2021/05/21 17:47:48;;;;;;;2.50;2.20;;;;;;;;;;5006983;28;20497;-86